sensor_id;sensor_type;location;lat;lon;timestamp;temperature;humidity
7192;DHT22;3637;51.494;11.958;2024-03-23T00:53:27;9.80;99.90
7192;DHT22;3637;51.494;11.958;2024-03-23T00:56:29;9.70;99.90
7192;DHT22;3637;51.494;11.958;2024-03-23T00:59:31;9.70;99.90
7192;DHT22;3637;51.494;11.958;2024-03-23T01:02:31;9.90;99.90
7192;DHT22;3637;51.494;11.958;2024-03-23T01:05:33;9.60;99.90
7192;DHT22;3637;51.494;11.958;2024-03-23T01:08:36;9.70;99.90
7192;DHT22;3637;51.494;11.958;2024-03-23T01:11:37;9.80;99.90
7192;DHT22;3637;51.494;11.958;2024-03-23T01:14:39;9.60;99.90
7192;DHT22;3637;51.494;11.958;2024-03-23T01:17:40;10.40;99.90
7192;DHT22;3637;51.494;11.958;2024-03-23T01:20:41;9.80;99.90
7192;DHT22;3637;51.494;11.958;2024-03-23T01:23:43;9.80;99.90
7192;DHT22;3637;51.494;11.958;2024-03-23T01:26:45;10.10;99.90
7192;DHT22;3637;51.494;11.958;2024-03-23T01:29:46;9.90;99.90
7192;DHT22;3637;51.494;11.958;2024-03-23T01:32:48;9.90;99.90
7192;DHT22;3637;51.494;11.958;2024-03-23T01:35:48;9.90;99.90
7192;DHT22;3637;51.494;11.958;2024-03-23T01:38:52;9.90;99.90
7192;DHT22;3637;51.494;11.958;2024-03-23T01:41:53;9.70;99.90
7192;DHT22;3637;51.494;11.958;2024-03-23T01:44:54;9.90;99.90
7192;DHT22;3637;51.494;11.958;2024-03-23T01:47:55;10.00;99.90
7192;DHT22;3637;51.494;11.958;2024-03-23T01:50:57;9.90;99.90
7192;DHT22;3637;51.494;11.958;2024-03-23T01:54:00;9.90;99.90
7192;DHT22;3637;51.494;11.958;2024-03-23T01:57:04;9.90;99.90
7192;DHT22;3637;51.494;11.958;2024-03-23T02:00:06;10.00;99.90
7192;DHT22;3637;51.494;11.958;2024-03-23T02:03:22;9.80;99.90
7192;DHT22;3637;51.494;11.958;2024-03-23T02:06:24;9.90;99.90
7192;DHT22;3637;51.494;11.958;2024-03-23T02:09:27;9.80;99.90
7192;DHT22;3637;51.494;11.958;2024-03-23T02:12:28;9.90;99.90
7192;DHT22;3637;51.494;11.958;2024-03-23T02:15:30;9.90;99.90
7192;DHT22;3637;51.494;11.958;2024-03-23T02:18:32;9.90;99.90
7192;DHT22;3637;51.494;11.958;2024-03-23T02:21:33;9.80;99.90
7192;DHT22;3637;51.494;11.958;2024-03-23T02:24:36;9.70;99.90
7192;DHT22;3637;51.494;11.958;2024-03-23T02:27:37;9.70;99.90
7192;DHT22;3637;51.494;11.958;2024-03-23T02:30:40;9.70;99.90
7192;DHT22;3637;51.494;11.958;2024-03-23T02:33:42;9.50;99.90
7192;DHT22;3637;51.494;11.958;2024-03-23T02:36:43;9.50;99.90
7192;DHT22;3637;51.494;11.958;2024-03-23T02:39:46;9.40;99.90
7192;DHT22;3637;51.494;11.958;2024-03-23T02:42:47;9.70;99.90
7192;DHT22;3637;51.494;11.958;2024-03-23T02:45:48;9.70;99.90
7192;DHT22;3637;51.494;11.958;2024-03-23T02:48:49;9.80;99.90
7192;DHT22;3637;51.494;11.958;2024-03-23T02:51:51;9.80;99.90
7192;DHT22;3637;51.494;11.958;2024-03-23T02:54:53;9.90;99.90
7192;DHT22;3637;51.494;11.958;2024-03-23T02:57:55;9.90;99.90
7192;DHT22;3637;51.494;11.958;2024-03-23T03:00:56;9.90;99.90
7192;DHT22;3637;51.494;11.958;2024-03-23T03:03:57;9.80;99.90
7192;DHT22;3637;51.494;11.958;2024-03-23T03:06:59;9.90;99.90
7192;DHT22;3637;51.494;11.958;2024-03-23T03:10:03;9.80;99.90
7192;DHT22;3637;51.494;11.958;2024-03-23T03:13:05;9.90;99.90
7192;DHT22;3637;51.494;11.958;2024-03-23T03:16:08;9.90;99.90
7192;DHT22;3637;51.494;11.958;2024-03-23T03:19:09;10.00;99.90
7192;DHT22;3637;51.494;11.958;2024-03-23T03:22:12;9.90;99.90
7192;DHT22;3637;51.494;11.958;2024-03-23T03:25:14;10.00;99.90
7192;DHT22;3637;51.494;11.958;2024-03-23T03:28:16;9.90;99.90
7192;DHT22;3637;51.494;11.958;2024-03-23T03:31:16;9.80;99.90
7192;DHT22;3637;51.494;11.958;2024-03-23T03:34:18;10.20;99.90
7192;DHT22;3637;51.494;11.958;2024-03-23T03:37:19;9.80;99.90
7192;DHT22;3637;51.494;11.958;2024-03-23T03:40:22;10.70;99.90
7192;DHT22;3637;51.494;11.958;2024-03-23T03:43:23;9.50;99.90
7192;DHT22;3637;51.494;11.958;2024-03-23T03:46:24;9.50;99.90
7192;DHT22;3637;51.494;11.958;2024-03-23T03:49:25;9.50;99.90
7192;DHT22;3637;51.494;11.958;2024-03-23T03:52:27;9.60;99.90
7192;DHT22;3637;51.494;11.958;2024-03-23T03:55:29;9.60;99.90
7192;DHT22;3637;51.494;11.958;2024-03-23T03:58:31;9.70;99.90
7192;DHT22;3637;51.494;11.958;2024-03-23T04:01:31;9.70;99.90
7192;DHT22;3637;51.494;11.958;2024-03-23T04:04:33;9.70;99.90
7192;DHT22;3637;51.494;11.958;2024-03-23T04:07:34;9.70;99.90
7192;DHT22;3637;51.494;11.958;2024-03-23T04:10:37;9.70;99.90
7192;DHT22;3637;51.494;11.958;2024-03-23T04:13:38;9.70;99.90
7192;DHT22;3637;51.494;11.958;2024-03-23T04:16:41;9.70;99.90
7192;DHT22;3637;51.494;11.958;2024-03-23T04:19:43;10.00;99.90
7192;DHT22;3637;51.494;11.958;2024-03-23T04:22:45;9.70;99.90
7192;DHT22;3637;51.494;11.958;2024-03-23T04:25:48;9.60;99.90
7192;DHT22;3637;51.494;11.958;2024-03-23T04:28:51;9.60;99.90
7192;DHT22;3637;51.494;11.958;2024-03-23T04:31:53;9.70;99.90
7192;DHT22;3637;51.494;11.958;2024-03-23T04:34:54;9.60;99.90
7192;DHT22;3637;51.494;11.958;2024-03-23T04:37:56;9.70;99.90
7192;DHT22;3637;51.494;11.958;2024-03-23T04:41:00;9.60;99.90
7192;DHT22;3637;51.494;11.958;2024-03-23T04:44:02;9.60;99.90
7192;DHT22;3637;51.494;11.958;2024-03-23T04:47:04;9.60;99.90
7192;DHT22;3637;51.494;11.958;2024-03-23T04:50:06;9.60;99.90
7192;DHT22;3637;51.494;11.958;2024-03-23T04:53:08;9.60;99.90
7192;DHT22;3637;51.494;11.958;2024-03-23T04:56:11;9.60;99.90
7192;DHT22;3637;51.494;11.958;2024-03-23T04:59:13;9.60;99.90
7192;DHT22;3637;51.494;11.958;2024-03-23T05:02:14;9.50;99.90
7192;DHT22;3637;51.494;11.958;2024-03-23T05:05:15;9.40;99.90
7192;DHT22;3637;51.494;11.958;2024-03-23T05:08:16;9.40;99.90
7192;DHT22;3637;51.494;11.958;2024-03-23T05:11:20;9.50;99.90
7192;DHT22;3637;51.494;11.958;2024-03-23T05:14:21;9.60;99.90
7192;DHT22;3637;51.494;11.958;2024-03-23T05:17:23;9.90;99.90
7192;DHT22;3637;51.494;11.958;2024-03-23T05:20:23;9.40;99.90
7192;DHT22;3637;51.494;11.958;2024-03-23T05:23:25;9.50;99.90
7192;DHT22;3637;51.494;11.958;2024-03-23T05:26:29;9.50;99.90
7192;DHT22;3637;51.494;11.958;2024-03-23T05:29:30;9.40;99.90
7192;DHT22;3637;51.494;11.958;2024-03-23T05:32:32;9.30;99.90
7192;DHT22;3637;51.494;11.958;2024-03-23T05:35:33;8.80;99.90
7192;DHT22;3637;51.494;11.958;2024-03-23T05:38:34;10.20;99.90
7192;DHT22;3637;51.494;11.958;2024-03-23T05:41:36;9.40;99.90
7192;DHT22;3637;51.494;11.958;2024-03-23T05:44:38;9.40;99.90
7192;DHT22;3637;51.494;11.958;2024-03-23T05:47:39;9.40;99.90
7192;DHT22;3637;51.494;11.958;2024-03-23T05:50:41;9.40;99.90
7192;DHT22;3637;51.494;11.958;2024-03-23T05:53:41;9.40;99.90
7192;DHT22;3637;51.494;11.958;2024-03-23T05:56:44;9.40;99.90
7192;DHT22;3637;51.494;11.958;2024-03-23T05:59:45;9.40;99.90
7192;DHT22;3637;51.494;11.958;2024-03-23T06:02:47;9.30;99.90
7192;DHT22;3637;51.494;11.958;2024-03-23T06:05:48;9.30;99.90
7192;DHT22;3637;51.494;11.958;2024-03-23T06:08:50;9.20;99.90
7192;DHT22;3637;51.494;11.958;2024-03-23T06:11:53;9.20;99.90
7192;DHT22;3637;51.494;11.958;2024-03-23T06:14:54;9.20;99.90
7192;DHT22;3637;51.494;11.958;2024-03-23T06:17:55;9.10;99.90
7192;DHT22;3637;51.494;11.958;2024-03-23T06:20:57;9.10;99.90
7192;DHT22;3637;51.494;11.958;2024-03-23T06:23:58;8.90;99.90
7192;DHT22;3637;51.494;11.958;2024-03-23T06:27:01;8.80;99.90
7192;DHT22;3637;51.494;11.958;2024-03-23T06:30:02;8.70;99.90
7192;DHT22;3637;51.494;11.958;2024-03-23T06:33:04;8.50;99.90
7192;DHT22;3637;51.494;11.958;2024-03-23T06:36:07;8.50;99.90
7192;DHT22;3637;51.494;11.958;2024-03-23T06:39:10;8.50;99.90
7192;DHT22;3637;51.494;11.958;2024-03-23T06:42:16;8.20;99.90
7192;DHT22;3637;51.494;11.958;2024-03-23T06:45:17;8.20;99.90
7192;DHT22;3637;51.494;11.958;2024-03-23T06:48:23;8.10;99.90
7192;DHT22;3637;51.494;11.958;2024-03-23T06:51:25;8.10;99.90
7192;DHT22;3637;51.494;11.958;2024-03-23T06:54:26;7.90;99.90
7192;DHT22;3637;51.494;11.958;2024-03-23T06:57:29;8.10;99.90
7192;DHT22;3637;51.494;11.958;2024-03-23T07:00:31;7.70;99.90
7192;DHT22;3637;51.494;11.958;2024-03-23T07:03:33;7.60;99.90
7192;DHT22;3637;51.494;11.958;2024-03-23T07:06:34;7.70;99.90
7192;DHT22;3637;51.494;11.958;2024-03-23T07:09:36;7.20;99.90
7192;DHT22;3637;51.494;11.958;2024-03-23T07:12:39;7.30;99.90
7192;DHT22;3637;51.494;11.958;2024-03-23T07:15:41;7.20;99.90
7192;DHT22;3637;51.494;11.958;2024-03-23T07:18:43;7.20;99.90
7192;DHT22;3637;51.494;11.958;2024-03-23T07:21:44;7.00;99.90
7192;DHT22;3637;51.494;11.958;2024-03-23T07:24:46;6.70;99.90
7192;DHT22;3637;51.494;11.958;2024-03-23T07:27:48;6.60;99.90
7192;DHT22;3637;51.494;11.958;2024-03-23T07:31:04;6.60;99.90
7192;DHT22;3637;51.494;11.958;2024-03-23T07:34:06;6.40;99.90
7192;DHT22;3637;51.494;11.958;2024-03-23T07:37:08;6.50;99.90
7192;DHT22;3637;51.494;11.958;2024-03-23T07:40:09;6.30;99.90
7192;DHT22;3637;51.494;11.958;2024-03-23T07:43:13;6.20;99.90
7192;DHT22;3637;51.494;11.958;2024-03-23T07:46:15;6.20;99.90
7192;DHT22;3637;51.494;11.958;2024-03-23T07:49:17;6.10;99.90
7192;DHT22;3637;51.494;11.958;2024-03-23T07:52:18;6.10;99.90
7192;DHT22;3637;51.494;11.958;2024-03-23T07:55:21;6.10;99.90
7192;DHT22;3637;51.494;11.958;2024-03-23T07:58:24;6.00;99.90
7192;DHT22;3637;51.494;11.958;2024-03-23T08:01:25;6.00;99.90
7192;DHT22;3637;51.494;11.958;2024-03-23T08:04:27;5.90;99.90
7192;DHT22;3637;51.494;11.958;2024-03-23T08:07:28;5.80;99.90
7192;DHT22;3637;51.494;11.958;2024-03-23T08:10:29;7.10;99.90
7192;DHT22;3637;51.494;11.958;2024-03-23T08:13:32;5.90;99.90
7192;DHT22;3637;51.494;11.958;2024-03-23T08:16:34;5.90;99.90
7192;DHT22;3637;51.494;11.958;2024-03-23T08:19:34;6.00;99.90
7192;DHT22;3637;51.494;11.958;2024-03-23T08:22:36;6.00;99.90
7192;DHT22;3637;51.494;11.958;2024-03-23T08:25:37;5.90;99.90
7192;DHT22;3637;51.494;11.958;2024-03-23T08:28:40;5.90;99.90
7192;DHT22;3637;51.494;11.958;2024-03-23T08:31:41;5.80;99.90
7192;DHT22;3637;51.494;11.958;2024-03-23T08:34:42;5.90;99.90
7192;DHT22;3637;51.494;11.958;2024-03-23T08:37:43;5.80;99.90
7192;DHT22;3637;51.494;11.958;2024-03-23T08:40:45;5.80;99.90
7192;DHT22;3637;51.494;11.958;2024-03-23T08:43:47;5.70;99.90
7192;DHT22;3637;51.494;11.958;2024-03-23T08:46:49;5.50;99.90
7192;DHT22;3637;51.494;11.958;2024-03-23T08:49:49;6.10;99.90
7192;DHT22;3637;51.494;11.958;2024-03-23T08:52:51;5.60;99.90
7192;DHT22;3637;51.494;11.958;2024-03-23T08:55:53;5.70;99.90
7192;DHT22;3637;51.494;11.958;2024-03-23T08:58:55;5.80;99.90
7192;DHT22;3637;51.494;11.958;2024-03-23T09:01:57;5.80;99.90
7192;DHT22;3637;51.494;11.958;2024-03-23T09:04:58;5.80;99.90
7192;DHT22;3637;51.494;11.958;2024-03-23T09:08:05;6.20;99.90
7192;DHT22;3637;51.494;11.958;2024-03-23T09:11:08;5.70;99.90
7192;DHT22;3637;51.494;11.958;2024-03-23T09:14:11;5.60;99.90
7192;DHT22;3637;51.494;11.958;2024-03-23T09:17:12;5.80;99.90
7192;DHT22;3637;51.494;11.958;2024-03-23T09:20:14;5.80;99.90
7192;DHT22;3637;51.494;11.958;2024-03-23T09:23:15;5.70;99.90
7192;DHT22;3637;51.494;11.958;2024-03-23T09:26:17;6.00;99.90
7192;DHT22;3637;51.494;11.958;2024-03-23T09:29:20;5.50;99.90
7192;DHT22;3637;51.494;11.958;2024-03-23T09:32:21;5.40;99.90
7192;DHT22;3637;51.494;11.958;2024-03-23T09:35:23;6.30;99.90
7192;DHT22;3637;51.494;11.958;2024-03-23T09:38:24;5.40;99.90
7192;DHT22;3637;51.494;11.958;2024-03-23T09:41:26;5.30;99.90
7192;DHT22;3637;51.494;11.958;2024-03-23T09:44:28;5.40;99.90
7192;DHT22;3637;51.494;11.958;2024-03-23T09:47:30;5.30;99.90
7192;DHT22;3637;51.494;11.958;2024-03-23T09:50:31;5.10;99.90
7192;DHT22;3637;51.494;11.958;2024-03-23T09:53:32;5.10;99.90
7192;DHT22;3637;51.494;11.958;2024-03-23T09:56:34;5.20;99.90
7192;DHT22;3637;51.494;11.958;2024-03-23T09:59:36;5.80;99.90
7192;DHT22;3637;51.494;11.958;2024-03-23T10:02:38;5.60;99.90
7192;DHT22;3637;51.494;11.958;2024-03-23T10:05:39;5.70;99.90
7192;DHT22;3637;51.494;11.958;2024-03-23T10:08:41;5.70;99.90
7192;DHT22;3637;51.494;11.958;2024-03-23T10:11:41;5.70;99.90
7192;DHT22;3637;51.494;11.958;2024-03-23T10:14:46;5.80;99.90
7192;DHT22;3637;51.494;11.958;2024-03-23T10:17:47;5.70;99.90
7192;DHT22;3637;51.494;11.958;2024-03-23T10:20:51;5.70;99.90
7192;DHT22;3637;51.494;11.958;2024-03-23T10:23:52;5.80;99.90
7192;DHT22;3637;51.494;11.958;2024-03-23T10:26:56;5.90;99.90
7192;DHT22;3637;51.494;11.958;2024-03-23T10:30:08;5.60;99.90
7192;DHT22;3637;51.494;11.958;2024-03-23T10:33:10;6.30;99.90
7192;DHT22;3637;51.494;11.958;2024-03-23T10:36:12;6.50;99.90
7192;DHT22;3637;51.494;11.958;2024-03-23T10:39:14;6.60;99.90
7192;DHT22;3637;51.494;11.958;2024-03-23T10:42:17;6.80;99.90
7192;DHT22;3637;51.494;11.958;2024-03-23T10:45:21;6.80;99.90
7192;DHT22;3637;51.494;11.958;2024-03-23T10:48:22;7.10;99.90
7192;DHT22;3637;51.494;11.958;2024-03-23T10:51:24;7.30;99.90
7192;DHT22;3637;51.494;11.958;2024-03-23T10:54:27;7.60;99.90
7192;DHT22;3637;51.494;11.958;2024-03-23T10:57:34;7.40;99.90
7192;DHT22;3637;51.494;11.958;2024-03-23T11:00:37;7.20;99.90
7192;DHT22;3637;51.494;11.958;2024-03-23T11:03:41;7.20;99.90
7192;DHT22;3637;51.494;11.958;2024-03-23T11:06:45;7.30;99.90
7192;DHT22;3637;51.494;11.958;2024-03-23T11:09:46;7.40;99.90
7192;DHT22;3637;51.494;11.958;2024-03-23T11:12:50;7.30;99.90
7192;DHT22;3637;51.494;11.958;2024-03-23T11:15:53;7.60;99.90
7192;DHT22;3637;51.494;11.958;2024-03-23T11:19:33;7.60;99.90
7192;DHT22;3637;51.494;11.958;2024-03-23T11:22:44;7.60;99.90
7192;DHT22;3637;51.494;11.958;2024-03-23T11:25:47;7.80;99.90
7192;DHT22;3637;51.494;11.958;2024-03-23T11:28:48;8.20;99.90
7192;DHT22;3637;51.494;11.958;2024-03-23T11:31:52;8.20;99.90
7192;DHT22;3637;51.494;11.958;2024-03-23T11:34:53;8.30;99.90
7192;DHT22;3637;51.494;11.958;2024-03-23T11:38:05;8.90;99.90
7192;DHT22;3637;51.494;11.958;2024-03-23T11:41:07;8.30;99.90
7192;DHT22;3637;51.494;11.958;2024-03-23T11:44:15;8.60;99.90
7192;DHT22;3637;51.494;11.958;2024-03-23T11:47:18;9.20;99.90
7192;DHT22;3637;51.494;11.958;2024-03-23T11:50:20;8.90;99.90
7192;DHT22;3637;51.494;11.958;2024-03-23T11:53:22;9.10;99.90
7192;DHT22;3637;51.494;11.958;2024-03-23T11:56:24;9.00;99.90
7192;DHT22;3637;51.494;11.958;2024-03-23T11:59:32;9.80;99.90
7192;DHT22;3637;51.494;11.958;2024-03-23T12:02:35;9.20;99.90
7192;DHT22;3637;51.494;11.958;2024-03-23T12:05:37;9.30;99.90
7192;DHT22;3637;51.494;11.958;2024-03-23T12:08:40;9.30;99.90
7192;DHT22;3637;51.494;11.958;2024-03-23T12:11:40;8.90;99.90
7192;DHT22;3637;51.494;11.958;2024-03-23T12:14:42;9.20;99.90
7192;DHT22;3637;51.494;11.958;2024-03-23T12:17:44;9.60;99.90
7192;DHT22;3637;51.494;11.958;2024-03-23T12:20:46;9.70;99.90
7192;DHT22;3637;51.494;11.958;2024-03-23T12:23:49;10.20;99.90
7192;DHT22;3637;51.494;11.958;2024-03-23T12:26:50;10.10;99.90
7192;DHT22;3637;51.494;11.958;2024-03-23T12:29:52;10.40;99.90
7192;DHT22;3637;51.494;11.958;2024-03-23T12:32:54;10.40;99.90
7192;DHT22;3637;51.494;11.958;2024-03-23T12:35:57;10.70;99.90
7192;DHT22;3637;51.494;11.958;2024-03-23T12:38:58;10.60;99.90
7192;DHT22;3637;51.494;11.958;2024-03-23T12:41:59;10.70;99.90
7192;DHT22;3637;51.494;11.958;2024-03-23T12:45:00;11.90;99.90
7192;DHT22;3637;51.494;11.958;2024-03-23T12:48:03;10.80;99.90
7192;DHT22;3637;51.494;11.958;2024-03-23T12:51:05;10.80;99.90
7192;DHT22;3637;51.494;11.958;2024-03-23T12:54:06;11.00;99.90
7192;DHT22;3637;51.494;11.958;2024-03-23T12:57:08;11.20;99.90
7192;DHT22;3637;51.494;11.958;2024-03-23T13:00:11;11.10;99.90
7192;DHT22;3637;51.494;11.958;2024-03-23T13:03:14;10.80;99.90
7192;DHT22;3637;51.494;11.958;2024-03-23T13:06:18;10.90;99.90
7192;DHT22;3637;51.494;11.958;2024-03-23T13:09:21;11.20;99.90
7192;DHT22;3637;51.494;11.958;2024-03-23T13:12:23;11.40;99.90
7192;DHT22;3637;51.494;11.958;2024-03-23T13:15:24;11.90;99.90
7192;DHT22;3637;51.494;11.958;2024-03-23T13:18:29;11.40;99.90
7192;DHT22;3637;51.494;11.958;2024-03-23T13:21:30;11.70;99.90
7192;DHT22;3637;51.494;11.958;2024-03-23T13:24:32;11.90;99.90
7192;DHT22;3637;51.494;11.958;2024-03-23T13:27:33;12.50;99.90
7192;DHT22;3637;51.494;11.958;2024-03-23T13:30:35;12.70;99.90
7192;DHT22;3637;51.494;11.958;2024-03-23T13:33:37;12.60;99.40
7192;DHT22;3637;51.494;11.958;2024-03-23T13:36:39;12.40;99.90
7192;DHT22;3637;51.494;11.958;2024-03-23T13:39:39;12.50;99.90
7192;DHT22;3637;51.494;11.958;2024-03-23T13:42:42;12.40;99.90
7192;DHT22;3637;51.494;11.958;2024-03-23T13:45:43;12.20;99.90
7192;DHT22;3637;51.494;11.958;2024-03-23T13:48:46;11.70;99.90
7192;DHT22;3637;51.494;11.958;2024-03-23T13:51:47;11.20;99.90
7192;DHT22;3637;51.494;11.958;2024-03-23T13:54:49;10.20;99.90
7192;DHT22;3637;51.494;11.958;2024-03-23T13:57:49;9.40;99.90
7192;DHT22;3637;51.494;11.958;2024-03-23T14:00:53;9.80;99.90
7192;DHT22;3637;51.494;11.958;2024-03-23T14:03:55;8.00;99.90
7192;DHT22;3637;51.494;11.958;2024-03-23T14:06:57;7.30;99.90
7192;DHT22;3637;51.494;11.958;2024-03-23T14:10:02;6.90;99.90
7192;DHT22;3637;51.494;11.958;2024-03-23T14:13:05;6.50;99.90
7192;DHT22;3637;51.494;11.958;2024-03-23T14:16:07;6.30;99.90
7192;DHT22;3637;51.494;11.958;2024-03-23T14:19:11;6.50;99.90
7192;DHT22;3637;51.494;11.958;2024-03-23T14:22:21;5.90;99.90
7192;DHT22;3637;51.494;11.958;2024-03-23T14:25:23;7.30;99.90
7192;DHT22;3637;51.494;11.958;2024-03-23T14:28:27;6.90;99.90
7192;DHT22;3637;51.494;11.958;2024-03-23T14:31:28;7.00;99.90
7192;DHT22;3637;51.494;11.958;2024-03-23T14:34:31;7.20;99.90
7192;DHT22;3637;51.494;11.958;2024-03-23T14:37:32;7.20;99.90
7192;DHT22;3637;51.494;11.958;2024-03-23T14:40:38;6.90;99.90
7192;DHT22;3637;51.494;11.958;2024-03-23T14:43:40;7.40;99.90
7192;DHT22;3637;51.494;11.958;2024-03-23T14:46:43;7.60;99.90
7192;DHT22;3637;51.494;11.958;2024-03-23T14:49:48;7.70;99.90
7192;DHT22;3637;51.494;11.958;2024-03-23T14:52:50;7.80;99.90
7192;DHT22;3637;51.494;11.958;2024-03-23T14:55:54;8.00;99.90
7192;DHT22;3637;51.494;11.958;2024-03-23T14:58:55;8.00;99.90
7192;DHT22;3637;51.494;11.958;2024-03-23T15:01:57;8.40;99.90
7192;DHT22;3637;51.494;11.958;2024-03-23T15:05:00;8.30;99.90
7192;DHT22;3637;51.494;11.958;2024-03-23T15:08:03;8.60;99.90
7192;DHT22;3637;51.494;11.958;2024-03-23T15:11:05;8.80;99.90
7192;DHT22;3637;51.494;11.958;2024-03-23T15:14:07;8.90;99.90
7192;DHT22;3637;51.494;11.958;2024-03-23T15:17:07;9.00;99.90
7192;DHT22;3637;51.494;11.958;2024-03-23T15:20:11;8.80;99.90
7192;DHT22;3637;51.494;11.958;2024-03-23T15:23:12;8.70;99.90
7192;DHT22;3637;51.494;11.958;2024-03-23T15:26:13;8.80;99.90
7192;DHT22;3637;51.494;11.958;2024-03-23T15:29:14;8.70;99.90
7192;DHT22;3637;51.494;11.958;2024-03-23T15:32:17;8.80;99.90
7192;DHT22;3637;51.494;11.958;2024-03-23T15:35:19;8.80;99.90
7192;DHT22;3637;51.494;11.958;2024-03-23T15:38:23;8.90;99.90
7192;DHT22;3637;51.494;11.958;2024-03-23T15:41:24;8.90;99.90
7192;DHT22;3637;51.494;11.958;2024-03-23T15:44:26;8.90;99.90
7192;DHT22;3637;51.494;11.958;2024-03-23T15:47:27;8.80;99.90
7192;DHT22;3637;51.494;11.958;2024-03-23T15:50:30;8.80;99.90
7192;DHT22;3637;51.494;11.958;2024-03-23T15:57:21;9.10;99.90
7192;DHT22;3637;51.494;11.958;2024-03-23T16:00:24;8.30;99.90
7192;DHT22;3637;51.494;11.958;2024-03-23T16:03:26;8.20;99.90
7192;DHT22;3637;51.494;11.958;2024-03-23T16:06:29;8.20;99.90
7192;DHT22;3637;51.494;11.958;2024-03-23T16:09:30;8.00;99.90
7192;DHT22;3637;51.494;11.958;2024-03-23T16:12:32;7.90;99.90
7192;DHT22;3637;51.494;11.958;2024-03-23T16:15:33;7.80;99.90
7192;DHT22;3637;51.494;11.958;2024-03-23T16:18:35;7.80;99.90
7192;DHT22;3637;51.494;11.958;2024-03-23T16:21:38;8.10;99.90
7192;DHT22;3637;51.494;11.958;2024-03-23T16:24:40;7.70;99.90
7192;DHT22;3637;51.494;11.958;2024-03-23T16:27:41;7.80;99.90
7192;DHT22;3637;51.494;11.958;2024-03-23T16:30:42;7.80;99.90
7192;DHT22;3637;51.494;11.958;2024-03-23T16:33:43;7.80;99.90
7192;DHT22;3637;51.494;11.958;2024-03-23T16:36:46;7.90;99.90
7192;DHT22;3637;51.494;11.958;2024-03-23T16:39:47;7.90;99.90
7192;DHT22;3637;51.494;11.958;2024-03-23T16:42:49;8.40;99.90
7192;DHT22;3637;51.494;11.958;2024-03-23T16:45:59;8.10;99.90
7192;DHT22;3637;51.494;11.958;2024-03-23T16:49:02;8.00;99.90
7192;DHT22;3637;51.494;11.958;2024-03-23T16:52:05;7.90;99.90
7192;DHT22;3637;51.494;11.958;2024-03-23T16:55:06;7.80;99.90
7192;DHT22;3637;51.494;11.958;2024-03-23T16:58:09;7.60;99.90
7192;DHT22;3637;51.494;11.958;2024-03-23T17:01:11;7.70;99.90
7192;DHT22;3637;51.494;11.958;2024-03-23T17:04:21;7.20;99.90
7192;DHT22;3637;51.494;11.958;2024-03-23T17:07:24;7.10;99.90
7192;DHT22;3637;51.494;11.958;2024-03-23T17:10:25;7.00;99.90
7192;DHT22;3637;51.494;11.958;2024-03-23T17:13:26;6.90;99.90
7192;DHT22;3637;51.494;11.958;2024-03-23T17:16:28;6.80;99.90
7192;DHT22;3637;51.494;11.958;2024-03-23T17:19:30;6.70;99.90
7192;DHT22;3637;51.494;11.958;2024-03-23T17:22:32;7.20;99.90
7192;DHT22;3637;51.494;11.958;2024-03-23T17:25:34;6.60;99.90
7192;DHT22;3637;51.494;11.958;2024-03-23T17:28:35;6.40;99.90
7192;DHT22;3637;51.494;11.958;2024-03-23T17:31:37;6.30;99.90
7192;DHT22;3637;51.494;11.958;2024-03-23T17:34:38;6.20;99.90
7192;DHT22;3637;51.494;11.958;2024-03-23T17:37:42;6.10;99.90
7192;DHT22;3637;51.494;11.958;2024-03-23T17:40:43;6.10;99.90
7192;DHT22;3637;51.494;11.958;2024-03-23T17:43:45;6.00;99.90
7192;DHT22;3637;51.494;11.958;2024-03-23T17:46:47;6.00;99.90
7192;DHT22;3637;51.494;11.958;2024-03-23T17:49:48;5.80;99.90
7192;DHT22;3637;51.494;11.958;2024-03-23T17:52:51;5.70;99.90
7192;DHT22;3637;51.494;11.958;2024-03-23T17:55:52;5.60;99.90
7192;DHT22;3637;51.494;11.958;2024-03-23T17:58:53;6.10;99.90
7192;DHT22;3637;51.494;11.958;2024-03-23T18:01:55;5.60;99.90
7192;DHT22;3637;51.494;11.958;2024-03-23T18:04:55;5.50;99.90
7192;DHT22;3637;51.494;11.958;2024-03-23T18:07:59;5.60;99.90
7192;DHT22;3637;51.494;11.958;2024-03-23T18:11:07;5.40;99.90
7192;DHT22;3637;51.494;11.958;2024-03-23T18:14:07;5.40;99.90
7192;DHT22;3637;51.494;11.958;2024-03-23T18:17:09;5.50;99.90
7192;DHT22;3637;51.494;11.958;2024-03-23T18:20:11;5.40;99.90
7192;DHT22;3637;51.494;11.958;2024-03-23T18:23:13;5.30;99.90
7192;DHT22;3637;51.494;11.958;2024-03-23T18:26:15;5.30;99.90
7192;DHT22;3637;51.494;11.958;2024-03-23T18:29:17;5.50;99.90
7192;DHT22;3637;51.494;11.958;2024-03-23T18:32:19;5.50;99.90
7192;DHT22;3637;51.494;11.958;2024-03-23T18:35:20;5.60;99.90
7192;DHT22;3637;51.494;11.958;2024-03-23T18:38:26;5.80;99.90
7192;DHT22;3637;51.494;11.958;2024-03-23T18:41:27;5.90;99.90
7192;DHT22;3637;51.494;11.958;2024-03-23T18:44:29;6.10;99.90
7192;DHT22;3637;51.494;11.958;2024-03-23T18:47:30;6.10;99.90
7192;DHT22;3637;51.494;11.958;2024-03-23T18:50:31;6.10;99.90
7192;DHT22;3637;51.494;11.958;2024-03-23T18:53:34;6.20;99.90
7192;DHT22;3637;51.494;11.958;2024-03-23T18:56:36;6.20;99.90
7192;DHT22;3637;51.494;11.958;2024-03-23T18:59:38;6.10;99.90
7192;DHT22;3637;51.494;11.958;2024-03-23T19:02:39;5.90;99.90
7192;DHT22;3637;51.494;11.958;2024-03-23T19:05:41;5.70;99.90
7192;DHT22;3637;51.494;11.958;2024-03-23T19:08:43;5.60;99.90
7192;DHT22;3637;51.494;11.958;2024-03-23T19:11:45;5.70;99.90
7192;DHT22;3637;51.494;11.958;2024-03-23T19:14:45;5.70;99.90
7192;DHT22;3637;51.494;11.958;2024-03-23T19:17:47;6.00;99.90
7192;DHT22;3637;51.494;11.958;2024-03-23T19:20:51;6.90;99.90
7192;DHT22;3637;51.494;11.958;2024-03-23T19:23:55;6.80;99.90
7192;DHT22;3637;51.494;11.958;2024-03-23T19:26:56;6.10;99.90
7192;DHT22;3637;51.494;11.958;2024-03-23T19:29:57;6.20;99.90
7192;DHT22;3637;51.494;11.958;2024-03-23T19:32:58;6.20;99.90
7192;DHT22;3637;51.494;11.958;2024-03-23T19:36:00;6.10;99.90
7192;DHT22;3637;51.494;11.958;2024-03-23T19:39:02;6.20;99.90
7192;DHT22;3637;51.494;11.958;2024-03-23T19:42:04;6.10;99.90
7192;DHT22;3637;51.494;11.958;2024-03-23T19:45:06;6.10;99.90
7192;DHT22;3637;51.494;11.958;2024-03-23T19:48:08;6.10;99.90
7192;DHT22;3637;51.494;11.958;2024-03-23T19:51:09;6.10;99.90
7192;DHT22;3637;51.494;11.958;2024-03-23T19:54:13;6.20;99.90
7192;DHT22;3637;51.494;11.958;2024-03-23T19:57:15;6.20;99.90
7192;DHT22;3637;51.494;11.958;2024-03-23T20:00:16;6.10;99.90
7192;DHT22;3637;51.494;11.958;2024-03-23T20:03:18;6.10;99.90
7192;DHT22;3637;51.494;11.958;2024-03-23T20:06:19;6.10;99.90
7192;DHT22;3637;51.494;11.958;2024-03-23T20:09:22;6.00;99.90
7192;DHT22;3637;51.494;11.958;2024-03-23T20:12:23;6.10;99.90
7192;DHT22;3637;51.494;11.958;2024-03-23T20:15:24;6.10;99.90
7192;DHT22;3637;51.494;11.958;2024-03-23T20:18:25;6.10;99.90
7192;DHT22;3637;51.494;11.958;2024-03-23T20:21:28;6.10;99.90
7192;DHT22;3637;51.494;11.958;2024-03-23T20:24:30;6.10;99.90
7192;DHT22;3637;51.494;11.958;2024-03-23T20:27:32;6.10;99.90
7192;DHT22;3637;51.494;11.958;2024-03-23T20:30:33;6.10;99.90
7192;DHT22;3637;51.494;11.958;2024-03-23T20:33:34;5.90;99.90
7192;DHT22;3637;51.494;11.958;2024-03-23T20:36:35;5.90;99.90
7192;DHT22;3637;51.494;11.958;2024-03-23T20:39:38;5.90;99.90
7192;DHT22;3637;51.494;11.958;2024-03-23T20:42:39;5.80;99.90